Time;durP1;ratioP1;P1;durP2;ratioP2;P2;SDS_P1;SDS_P2;PMS_P1;PMS_P2;Temp;Humidity;BMP_temperature;BMP_pressure;BME280_temperature;BME280_humidity;BME280_pressure;Samples;Min_cycle;Max_cycle;Signal;HPM_P1;HPM_P2
2022/06/22 00:00:14;;;;;;;16.10;7.65;;;;;;;14.61;78.24;101371.94;5052131;28;20077;-35
2022/06/22 00:02:42;;;;;;;14.77;7.75;;;;;;;14.56;79.08;101373.53;5057844;28;20046;-33
2022/06/22 00:05:15;;;;;;;12.93;7.43;;;;;;;14.53;79.40;101380.19;5044321;28;20350;-34
2022/06/22 00:07:45;;;;;;;12.25;7.28;;;;;;;14.51;79.62;101366.00;5043567;28;20034;-35
2022/06/22 00:10:27;;;;;;;11.40;7.13;;;;;;;14.50;79.77;101370.53;5041796;28;20104;-33
2022/06/22 00:12:54;;;;;;;12.60;7.15;;;;;;;14.50;79.64;101378.66;5043181;28;20032;-35
2022/06/22 00:15:20;;;;;;;12.43;7.32;;;;;;;14.48;79.74;101372.63;5043530;28;20053;-32
2022/06/22 00:17:45;;;;;;;14.02;8.20;;;;;;;14.46;79.88;101368.44;5043515;28;20500;-34
2022/06/22 00:20:16;;;;;;;18.05;8.93;;;;;;;14.41;79.83;101365.47;5041664;28;20109;-35
2022/06/22 00:23:07;;;;;;;18.90;8.02;;;;;;;14.40;80.43;101363.78;5040940;28;20037;-33
2022/06/22 00:25:38;;;;;;;14.32;7.90;;;;;;;14.36;80.52;101368.75;5044403;28;20468;-34
2022/06/22 00:28:25;;;;;;;20.50;8.10;;;;;;;14.32;80.72;101366.63;5045146;28;20037;-32
2022/06/22 00:31:01;;;;;;;14.23;7.60;;;;;;;14.30;80.84;101368.69;5043045;28;20045;-35
2022/06/22 00:33:27;;;;;;;19.02;8.15;;;;;;;14.27;80.79;101376.19;5047733;28;20039;-34
2022/06/22 00:36:00;;;;;;;16.48;7.95;;;;;;;14.27;80.82;101369.94;5042969;28;20025;-33
2022/06/22 00:38:28;;;;;;;16.52;8.77;;;;;;;14.26;80.83;101363.66;5043263;28;20041;-33
2022/06/22 00:40:55;;;;;;;;;;;;;;;14.23;80.87;101358.63;5041724;28;20072;-33
2022/06/22 00:43:25;;;;;;;24.30;10.30;;;;;;;14.24;81.01;101357.63;5058319;28;20015;-33
2022/06/22 00:45:51;;;;;;;19.70;10.10;;;;;;;14.26;80.93;101357.41;5041378;28;20037;-32
2022/06/22 00:48:30;;;;;;;16.20;10.02;;;;;;;14.24;81.27;101365.75;5057885;28;20038;-35
2022/06/22 00:51:01;;;;;;;14.90;9.20;;;;;;;14.21;81.38;101366.09;5037429;28;20040;-33
2022/06/22 00:53:49;;;;;;;16.60;9.50;;;;;;;14.18;81.37;101347.56;5050881;28;20396;-32
2022/06/22 00:56:34;;;;;;;17.85;10.05;;;;;;;14.17;81.51;101343.19;5041244;28;20031;-32
2022/06/22 00:59:04;;;;;;;17.15;10.40;;;;;;;14.16;81.87;101344.19;5058681;28;20037;-33
2022/06/22 01:01:42;;;;;;;20.75;10.30;;;;;;;14.17;82.04;101342.34;5041058;28;20160;-32
2022/06/22 01:04:09;;;;;;;;;;;;;;;14.16;82.05;101346.91;5026097;28;20113;-36
2022/06/22 01:07:01;;;;;;;16.95;9.93;;;;;;;14.14;81.83;101340.00;5040459;28;19920;-33
2022/06/22 01:09:54;;;;;;;17.27;10.55;;;;;;;14.09;81.91;101337.91;5059447;28;20523;-34
2022/06/22 01:12:29;;;;;;;23.55;10.80;;;;;;;14.09;81.74;101337.91;5056962;28;20112;-32
2022/06/22 01:15:24;;;;;;;19.30;11.35;;;;;;;14.06;82.14;101346.41;5042666;28;20047;-35
2022/06/22 01:17:54;;;;;;;16.20;10.40;;;;;;;14.03;82.07;101344.06;5048400;28;20032;-34
2022/06/22 01:20:50;;;;;;;13.63;9.93;;;;;;;14.06;82.18;101351.81;5047858;28;20106;-35
2022/06/22 01:23:23;;;;;;;19.67;11.13;;;;;;;14.09;82.13;101351.44;5046738;28;20040;-32
2022/06/22 01:25:56;;;;;;;14.30;9.70;;;;;;;14.08;82.05;101355.16;5049104;28;20037;-34
2022/06/22 01:28:22;;;;;;;17.27;10.30;;;;;;;14.06;82.44;101351.81;5042166;28;20068;-33
2022/06/22 01:30:54;;;;;;;16.48;10.07;;;;;;;14.02;82.57;101356.75;5042934;28;20033;-38
2022/06/22 01:33:25;;;;;;;21.08;11.52;;;;;;;13.98;82.91;101357.31;5041959;28;20041;-35
2022/06/22 01:35:55;;;;;;;15.57;10.98;;;;;;;13.99;83.04;101346.31;5056663;28;20044;-35
2022/06/22 01:38:24;;;;;;;20.10;11.40;;;;;;;13.96;83.35;101351.28;5041098;28;20041;-32
2022/06/22 01:40:57;;;;;;;17.52;11.02;;;;;;;13.91;83.66;101354.56;5041762;28;20026;-34
2022/06/22 01:43:34;;;;;;;23.90;11.43;;;;;;;13.90;84.04;101362.88;5056771;28;20053;-33
2022/06/22 01:46:19;;;;;;;22.23;11.05;;;;;;;13.87;84.12;101374.06;5056466;28;20257;-31
2022/06/22 01:48:58;;;;;;;31.38;12.35;;;;;;;13.83;84.12;101385.28;5046562;28;20068;-35
2022/06/22 01:51:36;;;;;;;16.70;11.25;;;;;;;13.78;84.13;101384.19;5041857;28;20052;-33
2022/06/22 01:54:08;;;;;;;16.98;10.38;;;;;;;13.72;84.20;101388.47;5053552;28;20112;-34
2022/06/22 01:56:41;;;;;;;17.90;11.27;;;;;;;13.69;83.99;101398.81;5051122;28;20033;-35
2022/06/22 01:59:28;;;;;;;20.63;11.32;;;;;;;13.67;84.23;101392.78;5039069;28;20040;-32
2022/06/22 02:01:59;;;;;;;19.30;11.63;;;;;;;13.66;84.32;101381.09;5040516;28;20053;-36
2022/06/22 02:04:33;;;;;;;20.13;11.68;;;;;;;13.65;83.85;101381.31;5057013;28;20029;-38
2022/06/22 02:09:56;;;;;;;16.67;10.77;;;;;;;13.58;83.54;101362.28;5059607;28;20071;-33
2022/06/22 02:12:27;;;;;;;26.58;12.45;;;;;;;13.56;83.26;101362.50;5045995;28;20045;-34
2022/06/22 02:14:58;;;;;;;19.42;12.43;;;;;;;13.50;83.74;101370.50;5055269;28;20093;-33
2022/06/22 02:17:26;;;;;;;20.27;12.40;;;;;;;13.47;83.96;101368.19;5055993;28;20090;-31
2022/06/22 02:20:19;;;;;;;19.92;11.98;;;;;;;13.41;84.60;101374.34;5038843;28;20052;-35
2022/06/22 02:22:46;;;;;;;19.80;11.75;;;;;;;13.39;85.14;101375.34;5043539;28;20037;-35
2022/06/22 02:25:12;;;;;;;21.70;12.20;;;;;;;13.37;84.97;101369.28;5037386;28;20026;-33
2022/06/22 02:27:37;;;;;;;23.10;12.27;;;;;;;13.38;84.67;101365.56;5023674;28;20041;-32
2022/06/22 02:30:03;;;;;;;21.05;12.63;;;;;;;13.42;84.38;101354.38;5040086;28;20033;-35
2022/06/22 02:32:42;;;;;;;23.88;13.32;;;;;;;13.38;84.56;101346.66;5041434;28;20037;-32
2022/06/22 02:35:10;;;;;;;25.20;12.80;;;;;;;13.35;84.69;101344.34;5056826;28;20066;-32
2022/06/22 02:37:40;;;;;;;23.20;13.73;;;;;;;13.32;84.82;101341.16;5045985;28;20033;-36
2022/06/22 02:40:09;;;;;;;26.50;13.25;;;;;;;13.34;84.89;101331.81;5040268;28;20034;-32
2022/06/22 02:45:19;;;;;;;21.23;14.27;;;;;;;13.28;84.78;101335.28;5049628;28;20469;-32
2022/06/22 02:48:13;;;;;;;24.35;14.98;;;;;;;13.26;85.18;101331.94;5039517;28;20140;-34
2022/06/22 02:50:42;;;;;;;21.45;14.38;;;;;;;13.32;84.69;101328.50;5038236;28;20096;-32
2022/06/22 02:53:24;;;;;;;23.73;14.88;;;;;;;13.26;84.61;101329.22;5044797;28;20060;-34
2022/06/22 02:55:51;;;;;;;25.23;13.70;;;;;;;13.27;84.61;101325.50;5038077;28;20033;-32
2022/06/22 02:58:31;;;;;;;29.77;15.70;;;;;;;13.30;84.65;101311.63;5039484;28;20065;-35
2022/06/22 03:01:02;;;;;;;29.67;15.07;;;;;;;13.28;84.51;101302.03;5031654;28;20046;-33
2022/06/22 03:03:28;;;;;;;25.55;15.15;;;;;;;13.23;84.64;101299.84;5037256;28;20071;-37
2022/06/22 03:05:55;;;;;;;28.23;15.10;;;;;;;13.23;84.82;101294.44;5048126;28;20026;-33
2022/06/22 03:08:22;;;;;;;25.38;14.95;;;;;;;13.21;85.07;101301.06;5038849;28;20069;-34
2022/06/22 03:10:54;;;;;;;23.00;15.10;;;;;;;13.19;85.13;101301.22;5039985;28;20041;-32
2022/06/22 03:13:26;;;;;;;23.20;15.20;;;;;;;13.12;85.40;101297.63;5037527;28;20045;-33
2022/06/22 03:15:53;;;;;;;27.10;15.63;;;;;;;13.10;85.56;101297.78;5036663;28;20044;-33
2022/06/22 03:18:24;;;;;;;26.15;15.07;;;;;;;13.09;85.59;101301.53;5019889;28;20817;-38
2022/06/22 03:21:01;;;;;;;25.02;16.42;;;;;;;13.09;85.72;101301.53;5032819;28;20121;-33
2022/06/22 03:23:59;;;;;;;27.00;15.93;;;;;;;13.09;86.06;101306.09;5037116;28;20048;-32
2022/06/22 03:26:36;;;;;;;26.90;16.05;;;;;;;13.03;86.32;101313.06;5032779;28;20044;-33
2022/06/22 03:29:09;;;;;;;28.40;16.20;;;;;;;13.03;86.86;101312.25;5037398;28;20107;-34
2022/06/22 03:31:47;;;;;;;24.10;15.27;;;;;;;13.00;87.34;101323.44;5032567;28;20401;-34
2022/06/22 03:34:22;;;;;;;26.67;15.38;;;;;;;13.03;87.59;101323.03;5021324;28;20116;-32
2022/06/22 03:36:52;;;;;;;26.10;16.75;;;;;;;13.03;87.41;101323.03;5053128;28;20029;-33
2022/06/22 03:39:19;;;;;;;30.35;16.00;;;;;;;13.02;87.14;101324.09;5043723;28;20086;-33
2022/06/22 03:41:52;;;;;;;25.63;15.50;;;;;;;12.99;86.72;101316.34;5038929;28;20030;-34
2022/06/22 03:44:31;;;;;;;30.02;16.38;;;;;;;12.97;86.96;101313.81;5039023;28;20041;-34
2022/06/22 03:47:01;;;;;;;26.38;16.15;;;;;;;12.95;86.85;101316.72;5037437;28;20036;-34
2022/06/22 03:49:45;;;;;;;24.20;15.27;;;;;;;12.93;86.78;101318.78;5037562;28;20037;-33
2022/06/22 03:52:18;;;;;;;29.55;16.45;;;;;;;12.93;87.17;101312.53;5029093;28;20372;-34
2022/06/22 03:54:50;;;;;;;32.60;15.93;;;;;;;12.93;86.95;101320.66;5033561;28;20033;-32
2022/06/22 03:57:20;;;;;;;28.00;17.25;;;;;;;12.99;87.51;101327.16;5036223;28;20036;-31
2022/06/22 03:59:46;;;;;;;28.15;17.33;;;;;;;13.01;87.35;101342.16;5035368;28;20033;-33
2022/06/22 04:02:11;;;;;;;28.40;16.02;;;;;;;13.05;86.99;101329.09;5035389;28;20510;-34
2022/06/22 04:04:37;;;;;;;22.63;15.35;;;;;;;13.06;86.60;101328.06;5035524;28;20034;-34
2022/06/22 04:07:02;;;;;;;23.98;15.05;;;;;;;13.09;86.44;101327.72;5035168;28;20025;-35
2022/06/22 04:09:28;;;;;;;21.70;14.50;;;;;;;13.16;86.26;101334.03;5040900;28;20029;-35
2022/06/22 04:12:03;;;;;;;24.55;14.40;;;;;;;13.22;86.10;101338.72;5042312;28;20862;-33
2022/06/22 04:14:33;;;;;;;21.55;13.82;;;;;;;13.26;85.58;101341.88;5036492;28;20167;-34
2022/06/22 04:17:10;;;;;;;27.25;14.85;;;;;;;13.37;85.54;101331.44;5051938;28;20099;-33
2022/06/22 04:19:46;;;;;;;31.00;14.17;;;;;;;13.45;85.70;101332.38;5041626;28;20052;-38
2022/06/22 04:22:16;;;;;;;26.08;15.77;;;;;;;13.56;85.64;101332.75;5041689;28;20284;-33
2022/06/22 04:24:51;;;;;;;27.50;14.88;;;;;;;13.69;85.30;101334.75;5018857;28;20378;-33
2022/06/22 04:27:25;;;;;;;24.77;15.05;;;;;;;13.84;84.96;101337.41;5039505;28;20106;-33
2022/06/22 04:29:58;;;;;;;21.73;14.48;;;;;;;13.99;84.51;101342.78;5039952;28;20072;-35
2022/06/22 04:32:41;;;;;;;27.60;14.85;;;;;;;14.10;84.00;101331.44;5041269;28;20124;-32
2022/06/22 04:35:32;;;;;;;33.70;15.57;;;;;;;14.19;83.56;101329.44;5042167;28;20025;-36
2022/06/22 04:38:01;;;;;;;24.52;14.57;;;;;;;14.32;83.68;101339.56;5052895;28;20416;-33
2022/06/22 04:40:36;;;;;;;30.20;14.48;;;;;;;14.41;83.38;101339.22;5057756;28;20029;-33
2022/06/22 04:43:03;;;;;;;18.05;13.68;;;;;;;14.56;83.12;101325.66;5045271;28;20036;-35
2022/06/22 04:45:31;;;;;;;22.38;13.25;;;;;;;14.69;81.82;101327.59;5043014;28;20048;-34
2022/06/22 04:48:02;;;;;;;21.58;13.25;;;;;;;14.78;80.78;101322.88;5024831;28;20030;-36
2022/06/22 04:50:27;;;;;;;23.63;13.90;;;;;;;14.83;80.41;101333.97;5041877;28;20052;-34
2022/06/22 04:52:55;;;;;;;17.38;11.23;;;;;;;14.86;80.45;101342.53;5041757;28;20029;-34
2022/06/22 04:55:23;;;;;;;23.80;14.05;;;;;;;14.93;80.22;101345.28;5040684;28;20018;-33
2022/06/22 04:57:51;;;;;;;27.55;12.52;;;;;;;15.08;79.65;101346.00;5042368;28;20072;-34
2022/06/22 05:00:17;;;;;;;;;;;;;;;15.19;79.56;101335.63;5041800;28;20037;-34
2022/06/22 05:02:45;;;;;;;18.60;12.85;;;;;;;15.27;79.31;101340.88;5041042;28;19917;-33
2022/06/22 05:05:20;;;;;;;19.77;11.98;;;;;;;15.37;79.00;101338.63;5042621;28;20025;-32
2022/06/22 05:07:55;;;;;;;21.50;12.75;;;;;;;15.47;78.91;101349.97;5050414;28;20025;-35
2022/06/22 05:10:39;;;;;;;22.88;11.77;;;;;;;15.55;78.83;101357.09;5045823;28;20029;-35
2022/06/22 05:13:12;;;;;;;19.63;11.60;;;;;;;15.69;78.41;101363.44;5043403;28;20030;-32
2022/06/22 05:15:39;;;;;;;20.58;10.52;;;;;;;15.79;77.45;101369.31;5040824;28;20460;-33
2022/06/22 05:18:10;;;;;;;21.27;10.57;;;;;;;15.88;77.12;101359.97;5055591;28;20025;-39
2022/06/22 05:20:40;;;;;;;19.10;10.52;;;;;;;15.97;76.37;101361.44;5042835;28;20325;-34
2022/06/22 05:23:06;;;;;;;21.25;9.77;;;;;;;15.99;76.45;101372.94;5042748;28;20025;-36
2022/06/22 05:25:32;;;;;;;19.92;11.38;;;;;;;16.11;76.41;101366.91;5042538;28;20048;-32
2022/06/22 05:28:09;;;;;;;23.10;9.75;;;;;;;16.21;75.80;101370.06;5034792;28;20062;-34
2022/06/22 05:30:48;;;;;;;15.47;10.17;;;;;;;16.35;75.91;101374.47;5030854;28;20025;-33
2022/06/22 05:33:16;;;;;;;18.90;9.10;;;;;;;16.49;75.22;101375.31;5058884;28;20779;-32
2022/06/22 05:35:53;;;;;;;13.38;9.48;;;;;;;16.58;73.80;101371.34;5042540;28;20090;-35
2022/06/22 05:38:20;;;;;;;17.75;9.30;;;;;;;16.67;73.23;101377.41;5041203;28;20060;-34
2022/06/22 05:40:47;;;;;;;17.83;8.40;;;;;;;16.79;72.78;101378.47;5024713;28;20033;-32
2022/06/22 05:43:12;;;;;;;13.60;7.90;;;;;;;16.89;72.31;101375.34;5028461;28;20395;-32
2022/06/22 05:45:43;;;;;;;12.68;7.40;;;;;;;17.00;70.32;101387.44;5044875;28;20123;-33
2022/06/22 05:48:16;;;;;;;10.55;7.07;;;;;;;17.06;68.52;101392.03;5041267;28;20079;-34
2022/06/22 05:50:48;;;;;;;13.75;6.32;;;;;;;17.12;67.34;101393.94;5042339;28;20093;-35
2022/06/22 05:53:22;;;;;;;12.43;6.55;;;;;;;17.15;67.07;101389.94;5046334;28;20028;-36
2022/06/22 05:56:01;;;;;;;12.25;5.97;;;;;;;17.28;65.91;101388.03;5062986;28;20087;-35
2022/06/22 05:58:51;;;;;;;9.00;6.00;;;;;;;17.33;64.82;101385.50;5059635;28;20029;-36
2022/06/22 06:01:22;;;;;;;11.75;5.65;;;;;;;17.39;64.90;101391.97;5051358;28;20132;-34
2022/06/22 06:04:10;;;;;;;8.70;5.55;;;;;;;17.48;63.71;101398.00;5032586;28;20029;-36
2022/06/22 06:06:38;;;;;;;10.35;5.25;;;;;;;17.56;63.97;101397.78;5045937;28;20134;-34
2022/06/22 06:09:06;;;;;;;13.75;5.60;;;;;;;17.66;62.89;101387.28;5045764;28;20528;-32
2022/06/22 06:12:02;;;;;;;7.97;5.15;;;;;;;17.80;62.85;101387.25;5043295;28;20037;-33
2022/06/22 06:14:36;;;;;;;12.95;4.63;;;;;;;17.95;61.81;101390.53;5047486;28;20590;-34
2022/06/22 06:17:07;;;;;;;11.55;4.60;;;;;;;18.13;60.61;101401.53;5046431;28;20036;-34
2022/06/22 06:19:34;;;;;;;10.88;4.93;;;;;;;18.29;59.44;101391.16;5040179;28;20416;-35
2022/06/22 06:22:02;;;;;;;7.03;4.60;;;;;;;18.38;58.47;101396.16;5025456;28;20511;-31
2022/06/22 06:27:34;;;;;;;11.70;4.50;;;;;;;18.51;57.13;101394.34;5043782;28;20041;-32
2022/06/22 06:27:35;;;;;;;8.25;4.32;;;;;;;18.58;56.96;101395.97;5041195;28;20065;-31
2022/06/22 06:30:15;;;;;;;12.57;4.55;;;;;;;18.66;57.51;101397.59;5054001;28;20040;-31
2022/06/22 06:32:47;;;;;;;8.20;4.35;;;;;;;18.86;57.46;101392.03;5045949;28;20052;-33
2022/06/22 06:35:22;;;;;;;9.52;4.32;;;;;;;19.06;56.35;101391.81;5048009;28;20138;-39
2022/06/22 06:37:56;;;;;;;9.88;4.20;;;;;;;19.20;54.99;101387.09;5044531;28;20017;-36
2022/06/22 06:40:32;;;;;;;9.68;4.00;;;;;;;19.31;55.35;101389.06;5044804;28;20029;-32
2022/06/22 06:43:17;;;;;;;6.38;3.38;;;;;;;19.38;54.37;101384.38;5044133;28;20077;-34
2022/06/22 06:45:42;;;;;;;5.97;3.30;;;;;;;19.51;54.30;101386.13;5025337;28;20053;-34
2022/06/22 06:48:17;;;;;;;16.60;3.45;;;;;;;19.63;52.02;101386.16;5044903;28;20031;-36
2022/06/22 06:50:47;;;;;;;9.70;3.35;;;;;;;19.49;52.15;101386.34;5043865;28;20055;-32
2022/06/22 06:53:22;;;;;;;8.52;3.17;;;;;;;19.56;52.40;101377.22;5043634;28;20025;-38
2022/06/22 06:55:51;;;;;;;11.93;3.85;;;;;;;19.70;52.48;101371.41;5054316;28;20036;-36
2022/06/22 06:58:30;;;;;;;9.65;3.72;;;;;;;19.89;52.94;101368.63;5045544;28;20044;-36
2022/06/22 07:00:55;;;;;;;11.15;3.42;;;;;;;20.30;52.92;101369.72;5055470;28;20072;-34
2022/06/22 07:03:36;;;;;;;14.55;4.32;;;;;;;20.95;50.94;101366.97;5034172;28;20040;-35
2022/06/22 07:06:03;;;;;;;6.10;3.10;;;;;;;21.92;48.72;101365.50;5034202;28;20040;-33
2022/06/22 07:08:34;;;;;;;13.60;3.60;;;;;;;23.05;45.07;101367.44;5047127;28;20026;-35
2022/06/22 07:11:08;;;;;;;11.45;3.42;;;;;;;24.15;42.11;101362.75;5049111;28;20029;-36
2022/06/22 07:13:44;;;;;;;6.18;2.90;;;;;;;25.06;39.75;101364.59;5046771;28;20380;-34
2022/06/22 07:16:14;;;;;;;10.63;2.92;;;;;;;25.71;38.65;101361.63;5031429;28;20136;-35
2022/06/22 07:18:42;;;;;;;10.60;3.38;;;;;;;26.21;37.93;101357.34;5058285;28;20029;-37
2022/06/22 07:21:20;;;;;;;14.07;2.97;;;;;;;27.56;34.97;101361.28;5052622;28;20029;-34
2022/06/22 07:23:50;;;;;;;8.88;3.90;;;;;;;27.85;33.92;101359.78;5053419;28;20101;-34
2022/06/22 07:26:41;;;;;;;7.32;3.15;;;;;;;28.55;33.25;101368.72;5062469;28;20029;-34
2022/06/22 07:29:14;;;;;;;6.97;2.60;;;;;;;29.30;30.90;101373.78;5038553;28;20037;-36
2022/06/22 07:31:47;;;;;;;10.55;3.05;;;;;;;30.04;29.87;101372.56;5057362;28;20025;-35
2022/06/22 07:34:17;;;;;;;10.57;3.25;;;;;;;29.94;29.95;101377.16;5046463;28;20381;-32
2022/06/22 07:36:50;;;;;;;6.47;2.67;;;;;;;29.77;30.20;101379.63;5050508;28;20014;-36
2022/06/22 07:39:28;;;;;;;10.13;3.40;;;;;;;30.19;30.07;101375.13;5059918;28;20045;-35
2022/06/22 07:41:53;;;;;;;10.02;3.15;;;;;;;30.68;28.40;101367.41;5053438;28;20084;-33
2022/06/22 07:44:24;;;;;;;6.17;2.93;;;;;;;30.93;28.35;101366.97;5052878;28;20026;-34
2022/06/22 07:46:54;;;;;;;11.75;2.95;;;;;;;30.41;29.57;101368.97;5048411;28;20029;-33
2022/06/22 07:50:00;;;;;;;14.43;3.28;;;;;;;30.80;28.85;101363.00;5030413;28;20168;-35
2022/06/22 07:52:40;;;;;;;10.55;3.30;;;;;;;31.19;28.01;101358.94;5048775;28;20105;-35
2022/06/22 07:55:18;;;;;;;5.72;2.60;;;;;;;30.34;29.88;101355.47;5066056;28;20048;-33
2022/06/22 07:58:03;;;;;;;12.40;3.45;;;;;;;31.17;28.04;101350.09;5055714;28;20203;-36
2022/06/22 08:00:29;;;;;;;10.50;3.80;;;;;;;31.23;27.35;101350.84;5052516;28;20028;-34
2022/06/22 08:03:24;;;;;;;17.55;3.97;;;;;;;30.82;28.15;101346.88;5057374;28;20041;-37
2022/06/22 08:05:52;;;;;;;8.20;3.60;;;;;;;30.53;28.79;101352.66;5069997;28;20033;-32
2022/06/22 08:08:28;;;;;;;9.88;3.28;;;;;;;31.59;26.85;101352.88;5053774;28;20029;-36
2022/06/22 08:10:53;;;;;;;10.32;3.85;;;;;;;32.16;25.34;101352.44;5052174;28;20025;-34
2022/06/22 08:13:23;;;;;;;8.93;3.80;;;;;;;31.60;26.15;101357.31;5052389;28;20041;-36
2022/06/22 08:16:00;;;;;;;7.82;3.33;;;;;;;31.22;26.13;101358.31;5051059;28;20043;-36
2022/06/22 08:18:27;;;;;;;13.80;4.00;;;;;;;31.20;27.06;101366.19;5048192;28;20052;-36
2022/06/22 08:20:53;;;;;;;8.02;4.38;;;;;;;30.89;27.92;101365.94;5043708;28;20515;-36
2022/06/22 08:23:28;;;;;;;10.77;4.20;;;;;;;30.72;28.31;101366.47;5053606;28;20136;-32
2022/06/22 08:25:54;;;;;;;11.57;4.18;;;;;;;31.34;27.58;101359.78;5052040;28;20021;-34
2022/06/22 08:28:21;;;;;;;9.55;4.18;;;;;;;30.95;28.32;101363.88;5062533;28;20021;-37
2022/06/22 08:30:49;;;;;;;12.68;3.80;;;;;;;31.67;27.13;101366.03;5070018;28;20288;-33
2022/06/22 08:33:20;;;;;;;11.55;4.20;;;;;;;32.24;25.04;101362.81;5055446;28;20110;-37
2022/06/22 08:35:50;;;;;;;11.43;4.40;;;;;;;32.26;25.76;101360.53;5053360;28;20034;-35
2022/06/22 08:38:26;;;;;;;8.35;3.78;;;;;;;32.18;25.59;101356.56;5053204;28;20025;-35
2022/06/22 08:41:10;;;;;;;;;;;;;;;32.65;23.55;101361.78;5053210;28;20056;-38
2022/06/22 08:43:48;;;;;;;6.22;2.38;;;;;;;32.63;24.07;101369.69;5051263;28;19939;-33
2022/06/22 08:46:13;;;;;;;9.02;4.10;;;;;;;32.33;25.77;101363.69;5044411;28;20021;-40
2022/06/22 08:49:23;;;;;;;13.97;5.67;;;;;;;32.54;25.84;101364.84;5052102;28;20032;-35
2022/06/22 08:52:03;;;;;;;15.95;5.22;;;;;;;32.13;26.60;101360.28;5043835;28;20049;-35
2022/06/22 08:54:39;;;;;;;14.57;5.00;;;;;;;32.17;26.79;101368.00;5041221;28;20031;-36
2022/06/22 08:57:11;;;;;;;14.60;4.32;;;;;;;32.63;25.67;101372.47;5070306;28;20056;-36
2022/06/22 09:00:15;;;;;;;10.18;4.15;;;;;;;33.06;25.42;101367.13;5055861;28;20029;-37
2022/06/22 09:03:11;;;;;;;11.55;4.28;;;;;;;33.13;25.45;101375.84;5050994;28;20049;-37
2022/06/22 09:05:48;;;;;;;17.05;5.45;;;;;;;32.25;25.85;101372.81;5071364;28;20261;-38
2022/06/22 09:08:25;;;;;;;11.00;4.53;;;;;;;32.51;25.70;101368.28;5048198;28;20029;-38
2022/06/22 09:10:56;;;;;;;11.45;4.20;;;;;;;32.95;24.43;101372.13;5048514;28;20025;-35
2022/06/22 09:13:55;;;;;;;11.73;3.38;;;;;;;32.62;24.66;101365.22;5066443;28;20367;-38
2022/06/22 09:16:54;;;;;;;13.38;3.97;;;;;;;33.23;24.02;101367.19;5045678;28;20036;-38
2022/06/22 09:19:55;;;;;;;9.73;4.28;;;;;;;32.85;24.81;101364.03;5056884;28;20029;-39
2022/06/22 09:22:38;;;;;;;8.93;4.85;;;;;;;33.11;25.06;101360.59;5051222;28;20041;-35
2022/06/22 09:25:28;;;;;;;11.32;4.65;;;;;;;32.93;24.97;101354.06;5056229;28;20044;-35
2022/06/22 09:28:01;;;;;;;11.27;3.97;;;;;;;33.09;24.36;101360.09;5067603;28;20033;-34
2022/06/22 09:30:48;;;;;;;11.60;3.67;;;;;;;33.18;24.56;101366.53;5070963;28;20044;-36
2022/06/22 09:33:52;;;;;;;9.88;3.67;;;;;;;33.48;23.58;101361.19;5062535;28;20107;-38
2022/06/22 09:36:37;;;;;;;10.13;3.65;;;;;;;33.40;22.80;101362.81;5051590;28;20189;-38
2022/06/22 09:39:08;;;;;;;12.73;3.28;;;;;;;32.90;24.12;101357.50;5052852;28;20374;-38
2022/06/22 09:41:53;;;;;;;9.38;3.75;;;;;;;33.26;23.46;101364.88;5067272;28;20041;-37
2022/06/22 09:44:31;;;;;;;11.90;4.00;;;;;;;33.07;23.85;101354.00;5064925;28;20108;-36
2022/06/22 09:47:05;;;;;;;12.15;3.85;;;;;;;32.82;24.36;101366.66;5065202;28;20028;-38
2022/06/22 09:50:03;;;;;;;15.60;4.68;;;;;;;33.49;23.07;101360.03;5066292;28;20027;-37
2022/06/22 09:52:38;;;;;;;11.98;3.95;;;;;;;33.36;24.34;101362.66;5050170;28;20017;-34
2022/06/22 09:57:57;;;;;;;11.63;4.22;;;;;;;33.20;26.79;101362.28;5069857;28;20044;-33
2022/06/22 10:00:34;;;;;;;15.85;4.68;;;;;;;32.23;27.62;101359.22;5061495;28;20120;-36
2022/06/22 10:03:18;;;;;;;12.35;4.32;;;;;;;32.37;28.15;101359.16;5056779;28;20025;-38
2022/06/22 10:06:22;;;;;;;15.68;4.45;;;;;;;32.62;27.51;101354.88;5071440;28;20032;-36
2022/06/22 10:08:50;;;;;;;10.43;3.97;;;;;;;32.93;26.80;101354.91;5047038;28;20092;-35
2022/06/22 10:11:44;;;;;;;10.95;3.20;;;;;;;32.62;27.44;101366.03;5031289;28;20563;-36
2022/06/22 10:14:31;;;;;;;12.20;3.95;;;;;;;31.96;28.63;101364.88;5034233;28;20017;-34
2022/06/22 10:17:00;;;;;;;15.60;3.70;;;;;;;31.51;29.97;101356.38;5050973;28;20029;-39
2022/06/22 10:19:51;;;;;;;16.05;3.60;;;;;;;31.63;29.78;101359.47;5049999;28;20021;-36
2022/06/22 10:22:30;;;;;;;18.70;4.65;;;;;;;31.38;28.30;101360.81;5038792;28;20037;-37
2022/06/22 10:25:13;;;;;;;20.27;4.38;;;;;;;31.43;28.94;101357.94;5051085;28;20026;-36
2022/06/22 10:27:47;;;;;;;7.55;3.03;;;;;;;31.98;28.50;101357.03;5051195;28;20037;-36
2022/06/22 10:30:54;;;;;;;10.85;3.30;;;;;;;32.81;27.33;101357.47;5051278;28;20025;-37
2022/06/22 10:33:27;;;;;;;15.02;3.40;;;;;;;32.75;27.35;101358.75;5039787;28;20136;-38
2022/06/22 10:36:11;;;;;;;12.38;3.00;;;;;;;32.87;27.04;101349.78;5050258;28;20029;-38
2022/06/22 10:38:39;;;;;;;8.63;3.50;;;;;;;32.73;26.88;101349.88;5056427;28;20025;-34
2022/06/22 10:47:33;;;;;;;10.05;3.08;;;;;;;32.52;28.45;101344.84;5033957;28;20076;-36
2022/06/22 10:50:22;;;;;;;14.63;3.50;;;;;;;32.15;28.35;101348.84;5029095;28;20145;-34
2022/06/22 10:52:51;;;;;;;9.73;3.30;;;;;;;32.49;27.71;101351.06;5037522;28;20037;-35
2022/06/22 10:55:30;;;;;;;12.13;3.45;;;;;;;33.41;26.47;101345.75;5050231;28;20022;-34
2022/06/22 10:58:14;;;;;;;16.88;3.70;;;;;;;33.29;25.90;101351.13;5049813;28;20017;-37
2022/06/22 11:00:58;;;;;;;11.45;3.63;;;;;;;32.93;26.83;101349.31;5045168;28;20056;-40
2022/06/22 11:03:51;;;;;;;7.70;3.47;;;;;;;33.29;25.51;101348.34;5040742;28;20370;-38
2022/06/22 11:06:42;;;;;;;8.15;3.85;;;;;;;32.71;26.23;101341.03;5043894;28;20061;-37
2022/06/22 11:09:31;;;;;;;9.00;4.00;;;;;;;32.91;25.42;101339.63;5045255;28;20017;-38
2022/06/22 11:12:14;;;;;;;14.10;3.92;;;;;;;32.61;26.45;101336.53;5040347;28;20085;-41
2022/06/22 11:14:57;;;;;;;9.40;3.63;;;;;;;32.38;27.58;101341.28;5032096;28;20044;-37
2022/06/22 11:17:30;;;;;;;11.30;4.82;;;;;;;32.51;26.42;101340.41;5037408;28;20089;-37
2022/06/22 11:20:15;;;;;;;9.95;4.45;;;;;;;32.81;25.49;101321.25;5044745;28;20063;-39
2022/06/22 11:23:26;;;;;;;15.52;2.65;;;;;;;32.26;27.15;101318.78;5032532;28;20052;-40
2022/06/22 11:32:39;;;;;;;7.78;3.55;;;;;;;32.91;25.26;101320.13;5039877;28;20064;-38
2022/06/22 11:35:21;;;;;;;10.27;3.88;;;;;;;32.58;25.97;101321.28;5049047;28;20025;-38
2022/06/22 11:38:01;;;;;;;8.43;2.90;;;;;;;32.06;28.04;101309.78;5051067;28;20041;-37
2022/06/22 11:40:48;;;;;;;12.98;3.10;;;;;;;32.57;27.48;101308.50;5034669;28;20029;-38
2022/06/22 11:43:38;;;;;;;8.27;2.85;;;;;;;32.43;27.78;101306.91;5049042;28;20101;-36
2022/06/22 11:46:33;;;;;;;7.82;2.78;;;;;;;31.98;28.59;101310.53;5052153;28;20077;-36
2022/06/22 11:49:25;;;;;;;8.95;3.40;;;;;;;32.43;27.66;101307.72;5050804;28;20101;-38
2022/06/22 11:52:28;;;;;;;8.68;3.38;;;;;;;31.85;28.42;101314.16;5050801;28;20021;-39
2022/06/22 11:55:10;;;;;;;15.40;3.72;;;;;;;32.02;28.51;101319.91;5051898;28;20033;-40
2022/06/22 11:58:06;;;;;;;16.83;3.17;;;;;;;32.44;27.96;101303.81;5052005;28;20017;-40
2022/06/22 12:00:50;;;;;;;;;;;;;;;32.73;27.20;101305.28;5067317;28;20030;-40
2022/06/22 12:03:40;;;;;;;15.07;2.63;;;;;;;32.44;27.92;101301.03;5052338;28;20125;-37
2022/06/22 12:06:14;;;;;;;12.43;3.45;;;;;;;32.23;27.86;101297.94;5035333;28;20092;-37
2022/06/22 12:08:55;;;;;;;13.02;3.58;;;;;;;31.76;28.73;101291.81;5057358;28;20040;-40
2022/06/22 12:11:35;;;;;;;13.45;3.38;;;;;;;32.03;28.96;101292.88;5033544;28;20080;-38
2022/06/22 12:17:03;;;;;;;;;;;;;;;32.48;27.77;101292.88;5034605;28;20046;-33
2022/06/22 12:20:03;;;;;;;12.63;3.53;;;;;;;32.31;28.10;101286.03;5032931;28;19913;-37
2022/06/22 12:22:50;;;;;;;6.85;2.80;;;;;;;31.99;28.33;101286.28;5033875;28;20053;-37